sensor_id;sensor_type;location;lat;lon;timestamp;temperature;humidity
24450;DHT22;13349;50.984;5.822;2024-01-11T00:00:46;-6.30;99.90
24450;DHT22;13349;50.984;5.822;2024-01-11T00:03:13;-6.30;99.90
24450;DHT22;13349;50.984;5.822;2024-01-11T00:05:42;-6.40;99.90
24450;DHT22;13349;50.984;5.822;2024-01-11T00:08:10;-6.40;99.90
24450;DHT22;13349;50.984;5.822;2024-01-11T00:10:37;-6.40;1.00
24450;DHT22;13349;50.984;5.822;2024-01-11T00:13:04;-6.30;1.00
24450;DHT22;13349;50.984;5.822;2024-01-11T00:15:31;-6.30;1.00
24450;DHT22;13349;50.984;5.822;2024-01-11T00:17:58;-6.30;1.00
24450;DHT22;13349;50.984;5.822;2024-01-11T00:20:25;-6.20;1.00
24450;DHT22;13349;50.984;5.822;2024-01-11T00:22:53;-6.00;1.00
24450;DHT22;13349;50.984;5.822;2024-01-11T00:25:20;-5.90;1.00
24450;DHT22;13349;50.984;5.822;2024-01-11T00:27:47;-5.90;1.00
24450;DHT22;13349;50.984;5.822;2024-01-11T00:30:14;-5.90;1.00
24450;DHT22;13349;50.984;5.822;2024-01-11T00:32:41;-6.00;1.00
24450;DHT22;13349;50.984;5.822;2024-01-11T00:35:08;-6.00;99.90
24450;DHT22;13349;50.984;5.822;2024-01-11T00:37:35;-6.00;1.00
24450;DHT22;13349;50.984;5.822;2024-01-11T00:40:03;-6.00;1.00
24450;DHT22;13349;50.984;5.822;2024-01-11T00:42:31;-6.10;1.00
24450;DHT22;13349;50.984;5.822;2024-01-11T00:45:00;-6.10;1.00
24450;DHT22;13349;50.984;5.822;2024-01-11T00:47:27;-6.10;1.00
24450;DHT22;13349;50.984;5.822;2024-01-11T00:49:54;-6.30;1.00
24450;DHT22;13349;50.984;5.822;2024-01-11T00:52:21;-6.40;1.00
24450;DHT22;13349;50.984;5.822;2024-01-11T00:54:47;-6.40;1.00
24450;DHT22;13349;50.984;5.822;2024-01-11T00:57:16;-6.40;1.00
24450;DHT22;13349;50.984;5.822;2024-01-11T00:59:43;-6.40;1.00
24450;DHT22;13349;50.984;5.822;2024-01-11T01:02:09;-6.40;1.00
24450;DHT22;13349;50.984;5.822;2024-01-11T01:04:37;-6.40;1.00
24450;DHT22;13349;50.984;5.822;2024-01-11T01:07:04;-6.30;1.00
24450;DHT22;13349;50.984;5.822;2024-01-11T01:09:31;-6.50;1.00
24450;DHT22;13349;50.984;5.822;2024-01-11T01:11:58;-6.60;1.00
24450;DHT22;13349;50.984;5.822;2024-01-11T01:14:26;-6.60;1.00
24450;DHT22;13349;50.984;5.822;2024-01-11T01:16:53;-6.60;1.00
24450;DHT22;13349;50.984;5.822;2024-01-11T01:19:20;-6.50;1.00
24450;DHT22;13349;50.984;5.822;2024-01-11T01:21:47;-6.60;56.10
24450;DHT22;13349;50.984;5.822;2024-01-11T01:24:14;-6.60;99.90
24450;DHT22;13349;50.984;5.822;2024-01-11T01:26:41;-6.60;99.90
24450;DHT22;13349;50.984;5.822;2024-01-11T01:29:08;-6.60;99.90
24450;DHT22;13349;50.984;5.822;2024-01-11T01:31:36;-6.70;99.90
24450;DHT22;13349;50.984;5.822;2024-01-11T01:34:04;-6.70;99.90
24450;DHT22;13349;50.984;5.822;2024-01-11T01:36:31;-6.80;99.90
24450;DHT22;13349;50.984;5.822;2024-01-11T01:38:58;-6.70;1.00
24450;DHT22;13349;50.984;5.822;2024-01-11T01:41:25;-6.60;1.00
24450;DHT22;13349;50.984;5.822;2024-01-11T01:43:52;-6.70;1.00
24450;DHT22;13349;50.984;5.822;2024-01-11T01:46:20;-6.70;1.00
24450;DHT22;13349;50.984;5.822;2024-01-11T01:48:50;-6.80;1.00
24450;DHT22;13349;50.984;5.822;2024-01-11T01:51:17;-6.90;1.00
24450;DHT22;13349;50.984;5.822;2024-01-11T01:53:44;-7.00;1.00
24450;DHT22;13349;50.984;5.822;2024-01-11T01:56:11;-7.10;1.00
24450;DHT22;13349;50.984;5.822;2024-01-11T01:58:38;-7.20;1.00
24450;DHT22;13349;50.984;5.822;2024-01-11T02:01:06;-7.20;1.00
24450;DHT22;13349;50.984;5.822;2024-01-11T02:03:34;-7.30;1.00
24450;DHT22;13349;50.984;5.822;2024-01-11T02:06:04;-7.30;1.00
24450;DHT22;13349;50.984;5.822;2024-01-11T02:08:32;-7.10;22.50
24450;DHT22;13349;50.984;5.822;2024-01-11T02:10:59;-7.20;99.90
24450;DHT22;13349;50.984;5.822;2024-01-11T02:13:26;-7.20;99.90
24450;DHT22;13349;50.984;5.822;2024-01-11T02:15:54;-7.10;99.90
24450;DHT22;13349;50.984;5.822;2024-01-11T02:18:20;-7.20;99.90
24450;DHT22;13349;50.984;5.822;2024-01-11T02:20:47;-7.30;1.00
24450;DHT22;13349;50.984;5.822;2024-01-11T02:23:17;-7.30;1.00
24450;DHT22;13349;50.984;5.822;2024-01-11T02:25:46;-7.20;1.00
24450;DHT22;13349;50.984;5.822;2024-01-11T02:28:13;-7.20;1.00
24450;DHT22;13349;50.984;5.822;2024-01-11T02:30:40;-7.20;1.00
24450;DHT22;13349;50.984;5.822;2024-01-11T02:33:08;-7.10;73.60
24450;DHT22;13349;50.984;5.822;2024-01-11T02:35:35;-7.00;99.90
24450;DHT22;13349;50.984;5.822;2024-01-11T02:38:05;-7.10;99.90
24450;DHT22;13349;50.984;5.822;2024-01-11T02:40:32;-7.10;99.90
24450;DHT22;13349;50.984;5.822;2024-01-11T02:43:08;-7.20;99.90
24450;DHT22;13349;50.984;5.822;2024-01-11T02:45:35;-7.30;99.90
24450;DHT22;13349;50.984;5.822;2024-01-11T02:48:02;-7.20;1.00
24450;DHT22;13349;50.984;5.822;2024-01-11T02:50:29;-7.20;1.00
24450;DHT22;13349;50.984;5.822;2024-01-11T02:52:56;-7.20;1.00
24450;DHT22;13349;50.984;5.822;2024-01-11T02:55:23;-7.30;1.00
24450;DHT22;13349;50.984;5.822;2024-01-11T02:57:49;-7.40;1.00
24450;DHT22;13349;50.984;5.822;2024-01-11T03:00:18;-7.40;1.00
24450;DHT22;13349;50.984;5.822;2024-01-11T03:02:45;-7.30;1.00
24450;DHT22;13349;50.984;5.822;2024-01-11T03:05:12;-7.20;1.00
24450;DHT22;13349;50.984;5.822;2024-01-11T03:07:39;-7.40;1.00
24450;DHT22;13349;50.984;5.822;2024-01-11T03:10:06;-7.40;1.00
24450;DHT22;13349;50.984;5.822;2024-01-11T03:12:33;-7.40;1.00
24450;DHT22;13349;50.984;5.822;2024-01-11T03:15:00;-7.30;99.90
24450;DHT22;13349;50.984;5.822;2024-01-11T03:17:29;-7.20;99.90
24450;DHT22;13349;50.984;5.822;2024-01-11T03:19:56;-7.30;99.90
24450;DHT22;13349;50.984;5.822;2024-01-11T03:22:23;-7.30;1.00
24450;DHT22;13349;50.984;5.822;2024-01-11T03:24:50;-7.20;1.00
24450;DHT22;13349;50.984;5.822;2024-01-11T03:27:16;-7.10;1.00
24450;DHT22;13349;50.984;5.822;2024-01-11T03:29:44;-7.00;1.00
24450;DHT22;13349;50.984;5.822;2024-01-11T03:32:10;-7.10;99.90
24450;DHT22;13349;50.984;5.822;2024-01-11T03:34:40;-7.10;99.90
24450;DHT22;13349;50.984;5.822;2024-01-11T03:37:07;-7.20;99.90
24450;DHT22;13349;50.984;5.822;2024-01-11T03:39:34;-7.20;99.90
24450;DHT22;13349;50.984;5.822;2024-01-11T03:42:01;-7.10;99.90
24450;DHT22;13349;50.984;5.822;2024-01-11T03:44:30;-7.10;1.00
24450;DHT22;13349;50.984;5.822;2024-01-11T03:46:57;-7.20;99.90
24450;DHT22;13349;50.984;5.822;2024-01-11T03:49:25;-7.20;1.00
24450;DHT22;13349;50.984;5.822;2024-01-11T03:51:53;-7.30;99.90
24450;DHT22;13349;50.984;5.822;2024-01-11T03:54:20;-7.30;99.90
24450;DHT22;13349;50.984;5.822;2024-01-11T03:56:47;-7.40;1.00
24450;DHT22;13349;50.984;5.822;2024-01-11T03:59:14;-7.30;1.00
24450;DHT22;13349;50.984;5.822;2024-01-11T04:01:41;-7.40;1.00
24450;DHT22;13349;50.984;5.822;2024-01-11T04:04:08;-7.30;1.00
24450;DHT22;13349;50.984;5.822;2024-01-11T04:06:35;-7.40;1.00
24450;DHT22;13349;50.984;5.822;2024-01-11T04:09:04;-7.30;1.00
24450;DHT22;13349;50.984;5.822;2024-01-11T04:11:32;-7.30;1.00
24450;DHT22;13349;50.984;5.822;2024-01-11T04:13:58;-7.30;1.00
24450;DHT22;13349;50.984;5.822;2024-01-11T04:16:26;-7.30;1.00
24450;DHT22;13349;50.984;5.822;2024-01-11T04:18:52;-7.20;1.00
24450;DHT22;13349;50.984;5.822;2024-01-11T04:21:20;-7.20;66.50
24450;DHT22;13349;50.984;5.822;2024-01-11T04:23:47;-7.10;99.90
24450;DHT22;13349;50.984;5.822;2024-01-11T04:26:16;-7.00;99.90
24450;DHT22;13349;50.984;5.822;2024-01-11T04:28:44;-7.00;99.90
24450;DHT22;13349;50.984;5.822;2024-01-11T04:31:11;-7.00;99.90
24450;DHT22;13349;50.984;5.822;2024-01-11T04:33:39;-7.00;99.90
24450;DHT22;13349;50.984;5.822;2024-01-11T04:36:06;-7.00;1.00
24450;DHT22;13349;50.984;5.822;2024-01-11T04:38:33;-6.90;1.00
24450;DHT22;13349;50.984;5.822;2024-01-11T04:41:00;-6.90;1.00
24450;DHT22;13349;50.984;5.822;2024-01-11T04:43:29;-6.90;1.00
24450;DHT22;13349;50.984;5.822;2024-01-11T04:45:55;-6.90;1.00
24450;DHT22;13349;50.984;5.822;2024-01-11T04:48:22;-6.90;1.00
24450;DHT22;13349;50.984;5.822;2024-01-11T04:50:49;-6.90;1.00
24450;DHT22;13349;50.984;5.822;2024-01-11T04:53:16;-6.90;1.00
24450;DHT22;13349;50.984;5.822;2024-01-11T04:55:44;-6.90;1.00
24450;DHT22;13349;50.984;5.822;2024-01-11T04:58:11;-6.90;1.00
24450;DHT22;13349;50.984;5.822;2024-01-11T05:00:39;-6.80;1.00
24450;DHT22;13349;50.984;5.822;2024-01-11T05:03:06;-6.80;1.00
24450;DHT22;13349;50.984;5.822;2024-01-11T05:05:33;-6.70;1.00
24450;DHT22;13349;50.984;5.822;2024-01-11T05:08:00;-6.70;62.80
24450;DHT22;13349;50.984;5.822;2024-01-11T05:10:27;-6.70;99.90
24450;DHT22;13349;50.984;5.822;2024-01-11T05:12:54;-6.70;99.90
24450;DHT22;13349;50.984;5.822;2024-01-11T05:15:21;-6.60;99.90
24450;DHT22;13349;50.984;5.822;2024-01-11T05:17:49;-6.60;99.90
24450;DHT22;13349;50.984;5.822;2024-01-11T05:20:16;-6.50;99.90
24450;DHT22;13349;50.984;5.822;2024-01-11T05:22:43;-6.50;99.90
24450;DHT22;13349;50.984;5.822;2024-01-11T05:25:10;-6.50;99.90
24450;DHT22;13349;50.984;5.822;2024-01-11T05:27:37;-6.40;99.90
24450;DHT22;13349;50.984;5.822;2024-01-11T05:30:05;-6.40;99.90
24450;DHT22;13349;50.984;5.822;2024-01-11T05:32:32;-6.40;99.90
24450;DHT22;13349;50.984;5.822;2024-01-11T05:35:00;-6.30;99.90
24450;DHT22;13349;50.984;5.822;2024-01-11T05:37:27;-6.30;99.90
24450;DHT22;13349;50.984;5.822;2024-01-11T05:39:54;-6.30;99.90
24450;DHT22;13349;50.984;5.822;2024-01-11T05:42:22;-6.30;99.90
24450;DHT22;13349;50.984;5.822;2024-01-11T05:44:51;-6.30;99.90
24450;DHT22;13349;50.984;5.822;2024-01-11T05:47:18;-6.20;99.90
24450;DHT22;13349;50.984;5.822;2024-01-11T05:49:45;-6.30;99.90
24450;DHT22;13349;50.984;5.822;2024-01-11T05:52:14;-6.30;99.90
24450;DHT22;13349;50.984;5.822;2024-01-11T05:54:41;-6.30;99.90
24450;DHT22;13349;50.984;5.822;2024-01-11T05:57:09;-6.30;99.90
24450;DHT22;13349;50.984;5.822;2024-01-11T05:59:35;-6.30;99.90
24450;DHT22;13349;50.984;5.822;2024-01-11T06:02:02;-6.30;99.90
24450;DHT22;13349;50.984;5.822;2024-01-11T06:04:31;-6.40;99.90
24450;DHT22;13349;50.984;5.822;2024-01-11T06:06:58;-6.30;99.90
24450;DHT22;13349;50.984;5.822;2024-01-11T06:09:27;-6.20;99.90
24450;DHT22;13349;50.984;5.822;2024-01-11T06:11:54;-6.30;99.90
24450;DHT22;13349;50.984;5.822;2024-01-11T06:14:21;-6.40;99.90
24450;DHT22;13349;50.984;5.822;2024-01-11T06:16:47;-6.40;99.90
24450;DHT22;13349;50.984;5.822;2024-01-11T06:19:14;-6.50;99.90
24450;DHT22;13349;50.984;5.822;2024-01-11T06:21:41;-6.50;99.90
24450;DHT22;13349;50.984;5.822;2024-01-11T06:24:09;-6.60;99.90
24450;DHT22;13349;50.984;5.822;2024-01-11T06:26:37;-6.60;99.90
24450;DHT22;13349;50.984;5.822;2024-01-11T06:29:04;-6.70;99.90
24450;DHT22;13349;50.984;5.822;2024-01-11T06:31:31;-6.60;99.90
24450;DHT22;13349;50.984;5.822;2024-01-11T06:33:58;-6.60;99.90
24450;DHT22;13349;50.984;5.822;2024-01-11T06:36:25;-6.70;99.90
24450;DHT22;13349;50.984;5.822;2024-01-11T06:38:52;-6.80;99.90
24450;DHT22;13349;50.984;5.822;2024-01-11T06:41:19;-6.70;99.90
24450;DHT22;13349;50.984;5.822;2024-01-11T06:43:47;-6.70;99.90
24450;DHT22;13349;50.984;5.822;2024-01-11T06:46:18;-6.80;99.90
24450;DHT22;13349;50.984;5.822;2024-01-11T06:48:45;-6.80;99.90
24450;DHT22;13349;50.984;5.822;2024-01-11T06:51:14;-6.70;99.90
24450;DHT22;13349;50.984;5.822;2024-01-11T06:53:41;-6.70;99.90
24450;DHT22;13349;50.984;5.822;2024-01-11T06:56:14;-6.80;99.90
24450;DHT22;13349;50.984;5.822;2024-01-11T06:58:42;-6.80;99.90
24450;DHT22;13349;50.984;5.822;2024-01-11T07:01:10;-6.70;99.90
24450;DHT22;13349;50.984;5.822;2024-01-11T07:03:37;-6.80;99.90
24450;DHT22;13349;50.984;5.822;2024-01-11T07:06:04;-6.70;99.90
24450;DHT22;13349;50.984;5.822;2024-01-11T07:08:32;-6.70;99.90
24450;DHT22;13349;50.984;5.822;2024-01-11T07:10:59;-6.60;99.90
24450;DHT22;13349;50.984;5.822;2024-01-11T07:13:27;-6.50;99.90
24450;DHT22;13349;50.984;5.822;2024-01-11T07:15:54;-6.50;99.90
24450;DHT22;13349;50.984;5.822;2024-01-11T07:18:24;-6.50;99.90
24450;DHT22;13349;50.984;5.822;2024-01-11T07:20:52;-6.60;99.90
24450;DHT22;13349;50.984;5.822;2024-01-11T07:23:19;-6.60;99.90
24450;DHT22;13349;50.984;5.822;2024-01-11T07:25:46;-6.70;99.90
24450;DHT22;13349;50.984;5.822;2024-01-11T07:28:12;-6.80;99.90
24450;DHT22;13349;50.984;5.822;2024-01-11T07:30:40;-6.90;99.90
24450;DHT22;13349;50.984;5.822;2024-01-11T07:33:06;-6.90;99.90
24450;DHT22;13349;50.984;5.822;2024-01-11T07:35:36;-6.90;99.90
24450;DHT22;13349;50.984;5.822;2024-01-11T07:38:03;-6.90;99.90
24450;DHT22;13349;50.984;5.822;2024-01-11T07:40:30;-7.00;99.90
24450;DHT22;13349;50.984;5.822;2024-01-11T07:42:57;-6.90;99.90
24450;DHT22;13349;50.984;5.822;2024-01-11T07:45:23;-7.00;99.90
24450;DHT22;13349;50.984;5.822;2024-01-11T07:47:50;-7.00;99.90
24450;DHT22;13349;50.984;5.822;2024-01-11T07:50:17;-7.10;99.90
24450;DHT22;13349;50.984;5.822;2024-01-11T07:52:46;-7.10;99.90
24450;DHT22;13349;50.984;5.822;2024-01-11T07:55:13;-7.00;99.90
24450;DHT22;13349;50.984;5.822;2024-01-11T07:57:40;-7.00;99.90
24450;DHT22;13349;50.984;5.822;2024-01-11T08:00:07;-7.00;99.90
24450;DHT22;13349;50.984;5.822;2024-01-11T08:02:34;-7.00;99.90
24450;DHT22;13349;50.984;5.822;2024-01-11T08:05:03;-6.80;99.90
24450;DHT22;13349;50.984;5.822;2024-01-11T08:07:30;-6.90;99.90
24450;DHT22;13349;50.984;5.822;2024-01-11T08:09:58;-6.90;99.90
24450;DHT22;13349;50.984;5.822;2024-01-11T08:12:25;-6.90;99.90
24450;DHT22;13349;50.984;5.822;2024-01-11T08:14:52;-6.80;99.90
24450;DHT22;13349;50.984;5.822;2024-01-11T08:17:19;-6.70;99.90
24450;DHT22;13349;50.984;5.822;2024-01-11T08:19:47;-6.50;99.90
24450;DHT22;13349;50.984;5.822;2024-01-11T08:22:14;-6.20;99.90
24450;DHT22;13349;50.984;5.822;2024-01-11T08:24:41;-5.90;99.90
24450;DHT22;13349;50.984;5.822;2024-01-11T08:27:09;-5.70;99.90
24450;DHT22;13349;50.984;5.822;2024-01-11T08:29:36;-5.60;99.90
24450;DHT22;13349;50.984;5.822;2024-01-11T08:32:03;-5.60;99.90
24450;DHT22;13349;50.984;5.822;2024-01-11T08:34:30;-5.50;99.90
24450;DHT22;13349;50.984;5.822;2024-01-11T08:36:57;-5.40;99.90
24450;DHT22;13349;50.984;5.822;2024-01-11T08:39:24;-5.40;99.90
24450;DHT22;13349;50.984;5.822;2024-01-11T08:41:51;-5.40;99.90
24450;DHT22;13349;50.984;5.822;2024-01-11T08:44:19;-5.50;99.90
24450;DHT22;13349;50.984;5.822;2024-01-11T08:46:46;-5.50;99.90
24450;DHT22;13349;50.984;5.822;2024-01-11T08:49:14;-5.60;99.90
24450;DHT22;13349;50.984;5.822;2024-01-11T08:51:41;-5.50;99.90
24450;DHT22;13349;50.984;5.822;2024-01-11T08:54:08;-5.50;99.90
24450;DHT22;13349;50.984;5.822;2024-01-11T08:56:36;-5.50;99.90
24450;DHT22;13349;50.984;5.822;2024-01-11T08:59:05;-5.40;99.90
24450;DHT22;13349;50.984;5.822;2024-01-11T09:01:35;-5.30;99.90
24450;DHT22;13349;50.984;5.822;2024-01-11T09:04:02;-5.00;99.90
24450;DHT22;13349;50.984;5.822;2024-01-11T09:06:30;-4.90;99.90
24450;DHT22;13349;50.984;5.822;2024-01-11T09:08:57;-4.80;99.90
24450;DHT22;13349;50.984;5.822;2024-01-11T09:11:24;-4.40;99.90
24450;DHT22;13349;50.984;5.822;2024-01-11T09:13:51;-4.00;99.90
24450;DHT22;13349;50.984;5.822;2024-01-11T09:16:18;-3.60;99.90
24450;DHT22;13349;50.984;5.822;2024-01-11T09:18:47;-3.10;99.90
24450;DHT22;13349;50.984;5.822;2024-01-11T09:21:13;-2.90;99.90
24450;DHT22;13349;50.984;5.822;2024-01-11T09:23:40;-2.70;99.90
24450;DHT22;13349;50.984;5.822;2024-01-11T09:26:07;-2.40;99.90
24450;DHT22;13349;50.984;5.822;2024-01-11T09:28:34;-2.30;99.90
24450;DHT22;13349;50.984;5.822;2024-01-11T09:31:01;-2.10;99.90
24450;DHT22;13349;50.984;5.822;2024-01-11T09:33:28;-1.90;1.00
24450;DHT22;13349;50.984;5.822;2024-01-11T09:35:56;-2.00;1.00
24450;DHT22;13349;50.984;5.822;2024-01-11T09:38:23;-1.90;1.00
24450;DHT22;13349;50.984;5.822;2024-01-11T09:40:52;-1.80;1.00
24450;DHT22;13349;50.984;5.822;2024-01-11T09:43:22;-1.70;1.00
24450;DHT22;13349;50.984;5.822;2024-01-11T09:45:49;-1.40;1.00
24450;DHT22;13349;50.984;5.822;2024-01-11T09:48:17;-1.30;99.90
24450;DHT22;13349;50.984;5.822;2024-01-11T09:50:45;-1.30;1.00
24450;DHT22;13349;50.984;5.822;2024-01-11T09:53:14;-1.40;99.90
24450;DHT22;13349;50.984;5.822;2024-01-11T09:55:43;-1.50;1.00
24450;DHT22;13349;50.984;5.822;2024-01-11T09:58:09;-1.40;99.90
24450;DHT22;13349;50.984;5.822;2024-01-11T10:00:37;-1.30;99.90
24450;DHT22;13349;50.984;5.822;2024-01-11T10:03:04;-1.10;1.00
24450;DHT22;13349;50.984;5.822;2024-01-11T10:05:31;-1.10;1.00
24450;DHT22;13349;50.984;5.822;2024-01-11T10:07:59;-1.00;1.00
24450;DHT22;13349;50.984;5.822;2024-01-11T10:10:28;-1.00;99.90
24450;DHT22;13349;50.984;5.822;2024-01-11T10:12:57;-1.00;1.00
24450;DHT22;13349;50.984;5.822;2024-01-11T10:15:24;-0.80;1.00
24450;DHT22;13349;50.984;5.822;2024-01-11T10:17:51;-0.90;1.00
24450;DHT22;13349;50.984;5.822;2024-01-11T10:20:17;-1.20;99.90
24450;DHT22;13349;50.984;5.822;2024-01-11T10:22:49;-1.10;99.90
24450;DHT22;13349;50.984;5.822;2024-01-11T10:25:17;-1.00;99.90
24450;DHT22;13349;50.984;5.822;2024-01-11T10:27:46;-0.80;19.30
24450;DHT22;13349;50.984;5.822;2024-01-11T10:30:13;-0.60;1.00
24450;DHT22;13349;50.984;5.822;2024-01-11T10:32:41;-0.70;1.00
24450;DHT22;13349;50.984;5.822;2024-01-11T10:35:08;-0.60;1.00
24450;DHT22;13349;50.984;5.822;2024-01-11T10:37:36;-0.60;1.00
24450;DHT22;13349;50.984;5.822;2024-01-11T10:40:04;-0.80;99.90
24450;DHT22;13349;50.984;5.822;2024-01-11T10:42:36;-0.70;99.90
24450;DHT22;13349;50.984;5.822;2024-01-11T10:45:07;-0.60;99.90
24450;DHT22;13349;50.984;5.822;2024-01-11T10:47:37;-0.70;14.90
24450;DHT22;13349;50.984;5.822;2024-01-11T10:50:05;-0.70;1.00
24450;DHT22;13349;50.984;5.822;2024-01-11T10:52:36;-0.40;1.00
24450;DHT22;13349;50.984;5.822;2024-01-11T10:55:03;-0.40;1.00
24450;DHT22;13349;50.984;5.822;2024-01-11T10:57:31;-0.30;1.00
24450;DHT22;13349;50.984;5.822;2024-01-11T10:59:59;-0.40;1.00
24450;DHT22;13349;50.984;5.822;2024-01-11T11:02:29;-0.10;1.00
24450;DHT22;13349;50.984;5.822;2024-01-11T11:04:58;-0.10;1.00
24450;DHT22;13349;50.984;5.822;2024-01-11T11:07:29;0.30;1.00
24450;DHT22;13349;50.984;5.822;2024-01-11T11:09:56;0.40;1.00
24450;DHT22;13349;50.984;5.822;2024-01-11T11:12:24;0.30;99.90
24450;DHT22;13349;50.984;5.822;2024-01-11T11:14:51;0.10;99.90
24450;DHT22;13349;50.984;5.822;2024-01-11T11:17:18;0.20;99.90
24450;DHT22;13349;50.984;5.822;2024-01-11T11:19:47;0.30;99.90
24450;DHT22;13349;50.984;5.822;2024-01-11T11:22:14;0.20;99.90
24450;DHT22;13349;50.984;5.822;2024-01-11T11:24:41;0.40;91.20
24450;DHT22;13349;50.984;5.822;2024-01-11T11:27:08;0.30;23.30
24450;DHT22;13349;50.984;5.822;2024-01-11T11:29:39;0.10;1.00
24450;DHT22;13349;50.984;5.822;2024-01-11T11:32:06;0.20;1.00
24450;DHT22;13349;50.984;5.822;2024-01-11T11:37:23;0.40;1.00
24450;DHT22;13349;50.984;5.822;2024-01-11T11:39:50;0.60;1.00
24450;DHT22;13349;50.984;5.822;2024-01-11T11:42:18;0.60;1.00
24450;DHT22;13349;50.984;5.822;2024-01-11T11:44:48;0.60;1.00
24450;DHT22;13349;50.984;5.822;2024-01-11T11:47:19;0.50;1.00
24450;DHT22;13349;50.984;5.822;2024-01-11T11:50:03;0.70;1.00
24450;DHT22;13349;50.984;5.822;2024-01-11T11:52:34;0.80;1.00
24450;DHT22;13349;50.984;5.822;2024-01-11T11:55:01;0.70;1.00
24450;DHT22;13349;50.984;5.822;2024-01-11T11:57:28;0.70;1.00
24450;DHT22;13349;50.984;5.822;2024-01-11T11:59:55;0.80;1.00
24450;DHT22;13349;50.984;5.822;2024-01-11T12:02:23;1.10;1.00
24450;DHT22;13349;50.984;5.822;2024-01-11T12:04:51;0.90;1.00
24450;DHT22;13349;50.984;5.822;2024-01-11T12:07:18;1.00;1.00
24450;DHT22;13349;50.984;5.822;2024-01-11T12:09:47;1.20;1.00
24450;DHT22;13349;50.984;5.822;2024-01-11T12:12:14;1.20;1.00
24450;DHT22;13349;50.984;5.822;2024-01-11T12:14:42;1.20;1.00
24450;DHT22;13349;50.984;5.822;2024-01-11T12:17:09;1.70;1.00
24450;DHT22;13349;50.984;5.822;2024-01-11T12:19:36;1.90;1.00
24450;DHT22;13349;50.984;5.822;2024-01-11T12:22:03;1.80;1.00
24450;DHT22;13349;50.984;5.822;2024-01-11T12:24:30;1.70;1.00
24450;DHT22;13349;50.984;5.822;2024-01-11T12:27:00;1.60;1.00
24450;DHT22;13349;50.984;5.822;2024-01-11T12:29:28;1.60;1.00
24450;DHT22;13349;50.984;5.822;2024-01-11T12:31:56;1.40;99.90
24450;DHT22;13349;50.984;5.822;2024-01-11T12:34:23;1.60;99.90
24450;DHT22;13349;50.984;5.822;2024-01-11T12:36:50;1.80;99.90
24450;DHT22;13349;50.984;5.822;2024-01-11T12:39:19;1.90;99.90
24450;DHT22;13349;50.984;5.822;2024-01-11T12:41:48;1.90;99.90
24450;DHT22;13349;50.984;5.822;2024-01-11T12:44:18;1.90;99.90
24450;DHT22;13349;50.984;5.822;2024-01-11T12:46:47;1.90;99.90
24450;DHT22;13349;50.984;5.822;2024-01-11T12:49:14;1.90;99.90
24450;DHT22;13349;50.984;5.822;2024-01-11T12:51:42;1.90;99.90
24450;DHT22;13349;50.984;5.822;2024-01-11T12:54:10;2.50;99.90
24450;DHT22;13349;50.984;5.822;2024-01-11T12:56:40;2.80;99.90
24450;DHT22;13349;50.984;5.822;2024-01-11T12:59:07;2.70;99.90
24450;DHT22;13349;50.984;5.822;2024-01-11T13:01:36;2.60;99.90
24450;DHT22;13349;50.984;5.822;2024-01-11T13:04:03;2.70;99.90
24450;DHT22;13349;50.984;5.822;2024-01-11T13:06:30;2.60;99.90
24450;DHT22;13349;50.984;5.822;2024-01-11T13:08:57;2.60;99.90
24450;DHT22;13349;50.984;5.822;2024-01-11T13:11:24;2.60;99.90
24450;DHT22;13349;50.984;5.822;2024-01-11T13:13:51;2.50;99.90
24450;DHT22;13349;50.984;5.822;2024-01-11T13:16:18;2.40;99.90
24450;DHT22;13349;50.984;5.822;2024-01-11T13:18:47;2.90;99.90
24450;DHT22;13349;50.984;5.822;2024-01-11T13:21:14;2.90;99.90
24450;DHT22;13349;50.984;5.822;2024-01-11T13:23:41;2.60;99.90
24450;DHT22;13349;50.984;5.822;2024-01-11T13:26:08;2.30;99.90
24450;DHT22;13349;50.984;5.822;2024-01-11T13:28:36;2.50;99.90
24450;DHT22;13349;50.984;5.822;2024-01-11T13:31:03;2.60;99.90
24450;DHT22;13349;50.984;5.822;2024-01-11T13:33:30;2.20;99.90
24450;DHT22;13349;50.984;5.822;2024-01-11T13:35:58;2.10;99.90
24450;DHT22;13349;50.984;5.822;2024-01-11T13:38:25;2.10;99.90
24450;DHT22;13349;50.984;5.822;2024-01-11T13:40:52;1.80;99.90
24450;DHT22;13349;50.984;5.822;2024-01-11T13:43:19;1.80;99.90
24450;DHT22;13349;50.984;5.822;2024-01-11T13:45:46;1.90;99.90
24450;DHT22;13349;50.984;5.822;2024-01-11T13:48:13;2.00;99.90
24450;DHT22;13349;50.984;5.822;2024-01-11T13:50:40;2.00;99.90
24450;DHT22;13349;50.984;5.822;2024-01-11T13:53:09;2.10;99.90
24450;DHT22;13349;50.984;5.822;2024-01-11T13:55:36;1.70;99.90
24450;DHT22;13349;50.984;5.822;2024-01-11T13:58:04;1.60;99.90
24450;DHT22;13349;50.984;5.822;2024-01-11T14:00:31;1.70;99.90
24450;DHT22;13349;50.984;5.822;2024-01-11T14:02:58;1.80;99.90
24450;DHT22;13349;50.984;5.822;2024-01-11T14:05:25;1.40;99.90
24450;DHT22;13349;50.984;5.822;2024-01-11T14:07:52;1.10;99.90
24450;DHT22;13349;50.984;5.822;2024-01-11T14:10:25;1.10;99.90
24450;DHT22;13349;50.984;5.822;2024-01-11T14:12:52;1.10;99.90
24450;DHT22;13349;50.984;5.822;2024-01-11T14:15:19;1.00;99.90
24450;DHT22;13349;50.984;5.822;2024-01-11T14:17:46;1.00;99.90
24450;DHT22;13349;50.984;5.822;2024-01-11T14:20:13;1.10;99.90
24450;DHT22;13349;50.984;5.822;2024-01-11T14:22:40;1.10;99.90
24450;DHT22;13349;50.984;5.822;2024-01-11T14:25:08;1.00;99.90
24450;DHT22;13349;50.984;5.822;2024-01-11T14:27:37;0.90;99.90
24450;DHT22;13349;50.984;5.822;2024-01-11T14:30:05;0.80;99.90
24450;DHT22;13349;50.984;5.822;2024-01-11T14:32:32;0.80;99.90
24450;DHT22;13349;50.984;5.822;2024-01-11T14:34:59;0.70;99.90
24450;DHT22;13349;50.984;5.822;2024-01-11T14:37:30;0.60;99.90
24450;DHT22;13349;50.984;5.822;2024-01-11T14:39:57;0.50;99.90
24450;DHT22;13349;50.984;5.822;2024-01-11T14:42:25;0.50;99.90
24450;DHT22;13349;50.984;5.822;2024-01-11T14:44:53;0.50;99.90
24450;DHT22;13349;50.984;5.822;2024-01-11T14:47:20;0.60;99.90
24450;DHT22;13349;50.984;5.822;2024-01-11T14:49:47;0.60;99.90
24450;DHT22;13349;50.984;5.822;2024-01-11T14:52:14;0.70;99.90
24450;DHT22;13349;50.984;5.822;2024-01-11T14:54:41;0.50;99.90
24450;DHT22;13349;50.984;5.822;2024-01-11T14:57:08;0.60;99.90
24450;DHT22;13349;50.984;5.822;2024-01-11T14:59:35;0.40;99.90
24450;DHT22;13349;50.984;5.822;2024-01-11T15:02:03;0.40;99.90
24450;DHT22;13349;50.984;5.822;2024-01-11T15:04:31;0.40;99.90
24450;DHT22;13349;50.984;5.822;2024-01-11T15:06:57;0.40;99.90
24450;DHT22;13349;50.984;5.822;2024-01-11T15:09:24;0.40;99.90
24450;DHT22;13349;50.984;5.822;2024-01-11T15:11:51;0.30;99.90
24450;DHT22;13349;50.984;5.822;2024-01-11T15:14:18;0.30;99.90
24450;DHT22;13349;50.984;5.822;2024-01-11T15:16:45;0.30;99.90
24450;DHT22;13349;50.984;5.822;2024-01-11T15:19:17;0.30;99.90
24450;DHT22;13349;50.984;5.822;2024-01-11T15:21:43;0.10;99.90
24450;DHT22;13349;50.984;5.822;2024-01-11T15:24:10;0.20;99.90
24450;DHT22;13349;50.984;5.822;2024-01-11T15:26:37;0.10;99.90
24450;DHT22;13349;50.984;5.822;2024-01-11T15:29:04;0.10;99.90
24450;DHT22;13349;50.984;5.822;2024-01-11T15:31:31;0.10;99.90
24450;DHT22;13349;50.984;5.822;2024-01-11T15:34:01;0.00;99.90
24450;DHT22;13349;50.984;5.822;2024-01-11T15:36:29;-0.10;99.90
24450;DHT22;13349;50.984;5.822;2024-01-11T15:38:56;-0.30;99.90
24450;DHT22;13349;50.984;5.822;2024-01-11T15:41:23;-0.40;99.90
24450;DHT22;13349;50.984;5.822;2024-01-11T15:43:50;-0.60;99.90